sensor_id;sensor_type;location;lat;lon;timestamp;P1;durP1;ratioP1;P2;durP2;ratioP2
14907;SDS011;7545;52.092;7.006;2022-11-15T00:00:17;11.33;;;7.63;;
14907;SDS011;7545;52.092;7.006;2022-11-15T00:02:42;12.77;;;7.30;;
14907;SDS011;7545;52.092;7.006;2022-11-15T00:05:08;13.03;;;8.53;;
14907;SDS011;7545;52.092;7.006;2022-11-15T00:07:34;13.33;;;8.97;;
14907;SDS011;7545;52.092;7.006;2022-11-15T00:09:59;10.00;;;6.93;;
14907;SDS011;7545;52.092;7.006;2022-11-15T00:12:26;12.20;;;8.23;;
14907;SDS011;7545;52.092;7.006;2022-11-15T00:14:53;13.20;;;7.70;;
14907;SDS011;7545;52.092;7.006;2022-11-15T00:17:18;11.70;;;8.43;;
14907;SDS011;7545;52.092;7.006;2022-11-15T00:19:44;11.13;;;7.93;;
14907;SDS011;7545;52.092;7.006;2022-11-15T00:22:09;11.87;;;8.30;;
14907;SDS011;7545;52.092;7.006;2022-11-15T00:24:35;14.73;;;7.90;;
14907;SDS011;7545;52.092;7.006;2022-11-15T00:27:01;12.27;;;7.93;;
14907;SDS011;7545;52.092;7.006;2022-11-15T00:29:26;13.30;;;8.87;;
14907;SDS011;7545;52.092;7.006;2022-11-15T00:31:52;14.80;;;10.20;;
14907;SDS011;7545;52.092;7.006;2022-11-15T00:34:17;20.10;;;9.50;;
14907;SDS011;7545;52.092;7.006;2022-11-15T00:36:43;13.33;;;8.50;;
14907;SDS011;7545;52.092;7.006;2022-11-15T00:39:09;11.97;;;8.40;;
14907;SDS011;7545;52.092;7.006;2022-11-15T00:41:34;11.57;;;8.27;;
14907;SDS011;7545;52.092;7.006;2022-11-15T00:44:00;13.73;;;8.50;;
14907;SDS011;7545;52.092;7.006;2022-11-15T00:46:25;14.47;;;9.80;;
14907;SDS011;7545;52.092;7.006;2022-11-15T00:48:51;15.20;;;9.03;;
14907;SDS011;7545;52.092;7.006;2022-11-15T00:51:17;15.20;;;8.45;;
14907;SDS011;7545;52.092;7.006;2022-11-15T00:53:42;11.77;;;8.20;;
14907;SDS011;7545;52.092;7.006;2022-11-15T00:56:08;14.47;;;9.10;;
14907;SDS011;7545;52.092;7.006;2022-11-15T00:58:33;16.93;;;9.40;;
14907;SDS011;7545;52.092;7.006;2022-11-15T01:01:06;12.77;;;8.47;;
14907;SDS011;7545;52.092;7.006;2022-11-15T01:03:33;11.43;;;7.70;;
14907;SDS011;7545;52.092;7.006;2022-11-15T01:05:59;13.63;;;8.00;;
14907;SDS011;7545;52.092;7.006;2022-11-15T01:08:25;11.97;;;8.17;;
14907;SDS011;7545;52.092;7.006;2022-11-15T01:10:51;12.13;;;8.57;;
14907;SDS011;7545;52.092;7.006;2022-11-15T01:13:16;12.90;;;8.67;;
14907;SDS011;7545;52.092;7.006;2022-11-15T01:15:42;11.47;;;8.50;;
14907;SDS011;7545;52.092;7.006;2022-11-15T01:18:08;14.37;;;8.37;;
14907;SDS011;7545;52.092;7.006;2022-11-15T01:20:34;13.10;;;8.70;;
14907;SDS011;7545;52.092;7.006;2022-11-15T01:23:03;10.47;;;7.90;;
14907;SDS011;7545;52.092;7.006;2022-11-15T01:25:29;14.53;;;8.97;;
14907;SDS011;7545;52.092;7.006;2022-11-15T01:27:54;11.73;;;7.90;;
14907;SDS011;7545;52.092;7.006;2022-11-15T01:30:20;11.80;;;7.90;;
14907;SDS011;7545;52.092;7.006;2022-11-15T01:32:45;11.18;;;7.63;;
14907;SDS011;7545;52.092;7.006;2022-11-15T01:35:11;12.87;;;8.07;;
14907;SDS011;7545;52.092;7.006;2022-11-15T01:37:37;12.83;;;8.93;;
14907;SDS011;7545;52.092;7.006;2022-11-15T01:40:02;11.57;;;8.10;;
14907;SDS011;7545;52.092;7.006;2022-11-15T01:42:28;11.38;;;7.85;;
14907;SDS011;7545;52.092;7.006;2022-11-15T01:44:54;11.53;;;7.87;;
14907;SDS011;7545;52.092;7.006;2022-11-15T01:47:27;9.60;;;7.27;;
14907;SDS011;7545;52.092;7.006;2022-11-15T01:49:55;12.93;;;8.50;;
14907;SDS011;7545;52.092;7.006;2022-11-15T01:52:28;12.45;;;7.93;;
14907;SDS011;7545;52.092;7.006;2022-11-15T01:55:04;11.80;;;7.43;;
14907;SDS011;7545;52.092;7.006;2022-11-15T01:57:33;11.73;;;7.77;;
14907;SDS011;7545;52.092;7.006;2022-11-15T02:00:00;11.73;;;7.97;;
14907;SDS011;7545;52.092;7.006;2022-11-15T02:02:28;10.67;;;8.13;;
14907;SDS011;7545;52.092;7.006;2022-11-15T02:04:53;11.30;;;8.17;;
14907;SDS011;7545;52.092;7.006;2022-11-15T02:07:19;9.57;;;8.10;;
14907;SDS011;7545;52.092;7.006;2022-11-15T02:09:47;12.07;;;7.97;;
14907;SDS011;7545;52.092;7.006;2022-11-15T02:12:15;11.60;;;8.30;;
14907;SDS011;7545;52.092;7.006;2022-11-15T02:14:45;10.97;;;8.03;;
14907;SDS011;7545;52.092;7.006;2022-11-15T02:39:41;13.47;;;7.53;;
14907;SDS011;7545;52.092;7.006;2022-11-15T02:42:24;11.53;;;7.57;;
14907;SDS011;7545;52.092;7.006;2022-11-15T02:45:11;12.48;;;7.95;;
14907;SDS011;7545;52.092;7.006;2022-11-15T02:47:43;15.13;;;7.23;;
14907;SDS011;7545;52.092;7.006;2022-11-15T02:50:12;10.23;;;8.00;;
14907;SDS011;7545;52.092;7.006;2022-11-15T02:52:44;10.63;;;7.17;;
14907;SDS011;7545;52.092;7.006;2022-11-15T02:55:30;12.60;;;9.53;;
14907;SDS011;7545;52.092;7.006;2022-11-15T02:58:05;13.20;;;8.33;;
14907;SDS011;7545;52.092;7.006;2022-11-15T03:00:47;10.20;;;7.72;;
14907;SDS011;7545;52.092;7.006;2022-11-15T03:03:40;14.02;;;7.68;;
14907;SDS011;7545;52.092;7.006;2022-11-15T03:06:23;10.45;;;6.75;;
14907;SDS011;7545;52.092;7.006;2022-11-15T03:09:08;11.00;;;6.70;;
14907;SDS011;7545;52.092;7.006;2022-11-15T03:11:50;11.00;;;7.68;;
14907;SDS011;7545;52.092;7.006;2022-11-15T03:17:05;10.32;;;7.80;;
14907;SDS011;7545;52.092;7.006;2022-11-15T03:19:47;12.52;;;7.38;;
14907;SDS011;7545;52.092;7.006;2022-11-15T03:22:17;9.50;;;6.95;;
14907;SDS011;7545;52.092;7.006;2022-11-15T03:24:46;13.32;;;7.57;;
14907;SDS011;7545;52.092;7.006;2022-11-15T03:27:17;11.45;;;7.38;;
14907;SDS011;7545;52.092;7.006;2022-11-15T03:29:47;11.60;;;7.18;;
14907;SDS011;7545;52.092;7.006;2022-11-15T03:32:19;11.53;;;6.80;;
14907;SDS011;7545;52.092;7.006;2022-11-15T03:34:52;10.93;;;7.60;;
14907;SDS011;7545;52.092;7.006;2022-11-15T03:37:24;11.07;;;7.22;;
14907;SDS011;7545;52.092;7.006;2022-11-15T03:40:02;11.02;;;7.03;;
14907;SDS011;7545;52.092;7.006;2022-11-15T03:42:34;14.98;;;7.55;;
14907;SDS011;7545;52.092;7.006;2022-11-15T03:47:48;10.23;;;7.50;;
14907;SDS011;7545;52.092;7.006;2022-11-15T03:50:18;9.98;;;6.55;;
14907;SDS011;7545;52.092;7.006;2022-11-15T03:52:46;11.15;;;6.95;;
14907;SDS011;7545;52.092;7.006;2022-11-15T03:55:15;10.68;;;7.03;;
14907;SDS011;7545;52.092;7.006;2022-11-15T03:57:45;11.68;;;7.43;;
14907;SDS011;7545;52.092;7.006;2022-11-15T04:00:13;12.05;;;6.97;;
14907;SDS011;7545;52.092;7.006;2022-11-15T04:02:39;13.43;;;8.55;;
14907;SDS011;7545;52.092;7.006;2022-11-15T04:05:04;10.70;;;7.28;;
14907;SDS011;7545;52.092;7.006;2022-11-15T04:07:30;9.57;;;6.97;;
14907;SDS011;7545;52.092;7.006;2022-11-15T04:09:56;10.38;;;6.63;;
14907;SDS011;7545;52.092;7.006;2022-11-15T04:12:27;9.52;;;7.10;;
14907;SDS011;7545;52.092;7.006;2022-11-15T04:14:57;9.43;;;6.80;;
14907;SDS011;7545;52.092;7.006;2022-11-15T04:20:16;10.00;;;7.15;;
14907;SDS011;7545;52.092;7.006;2022-11-15T04:23:03;10.45;;;6.90;;
14907;SDS011;7545;52.092;7.006;2022-11-15T04:25:50;10.85;;;7.25;;
14907;SDS011;7545;52.092;7.006;2022-11-15T04:28:17;10.68;;;7.45;;
14907;SDS011;7545;52.092;7.006;2022-11-15T04:30:43;8.50;;;6.80;;
14907;SDS011;7545;52.092;7.006;2022-11-15T04:33:09;8.63;;;6.75;;
14907;SDS011;7545;52.092;7.006;2022-11-15T04:35:34;11.00;;;6.72;;
14907;SDS011;7545;52.092;7.006;2022-11-15T04:38:00;9.63;;;7.50;;
14907;SDS011;7545;52.092;7.006;2022-11-15T04:40:27;14.50;;;7.00;;
14907;SDS011;7545;52.092;7.006;2022-11-15T04:42:52;10.10;;;6.28;;
14907;SDS011;7545;52.092;7.006;2022-11-15T04:45:18;9.73;;;6.68;;
14907;SDS011;7545;52.092;7.006;2022-11-15T04:47:44;9.40;;;7.38;;
14907;SDS011;7545;52.092;7.006;2022-11-15T04:50:11;10.38;;;6.68;;
14907;SDS011;7545;52.092;7.006;2022-11-15T04:52:39;9.38;;;6.60;;
14907;SDS011;7545;52.092;7.006;2022-11-15T04:55:11;11.25;;;6.88;;
14907;SDS011;7545;52.092;7.006;2022-11-15T04:57:37;11.38;;;6.82;;
14907;SDS011;7545;52.092;7.006;2022-11-15T05:00:04;10.27;;;6.18;;
14907;SDS011;7545;52.092;7.006;2022-11-15T05:02:31;9.80;;;6.40;;
14907;SDS011;7545;52.092;7.006;2022-11-15T05:05:15;10.75;;;6.35;;
14907;SDS011;7545;52.092;7.006;2022-11-15T05:07:40;12.25;;;6.30;;
14907;SDS011;7545;52.092;7.006;2022-11-15T05:10:06;9.27;;;6.65;;
14907;SDS011;7545;52.092;7.006;2022-11-15T05:12:32;8.30;;;6.07;;
14907;SDS011;7545;52.092;7.006;2022-11-15T05:14:57;7.72;;;6.22;;
14907;SDS011;7545;52.092;7.006;2022-11-15T05:17:23;8.88;;;6.18;;
14907;SDS011;7545;52.092;7.006;2022-11-15T05:19:48;10.85;;;6.38;;
14907;SDS011;7545;52.092;7.006;2022-11-15T05:22:14;7.97;;;7.00;;
14907;SDS011;7545;52.092;7.006;2022-11-15T05:24:39;8.65;;;5.88;;
14907;SDS011;7545;52.092;7.006;2022-11-15T05:27:05;10.45;;;6.82;;
14907;SDS011;7545;52.092;7.006;2022-11-15T05:29:31;8.57;;;6.68;;
14907;SDS011;7545;52.092;7.006;2022-11-15T05:31:56;9.25;;;6.47;;
14907;SDS011;7545;52.092;7.006;2022-11-15T05:34:22;9.60;;;6.75;;
14907;SDS011;7545;52.092;7.006;2022-11-15T05:36:49;8.88;;;6.00;;
14907;SDS011;7545;52.092;7.006;2022-11-15T05:39:15;10.02;;;6.70;;
14907;SDS011;7545;52.092;7.006;2022-11-15T05:41:48;11.55;;;7.50;;
14907;SDS011;7545;52.092;7.006;2022-11-15T05:44:19;10.32;;;6.35;;
14907;SDS011;7545;52.092;7.006;2022-11-15T05:46:47;8.35;;;6.88;;
14907;SDS011;7545;52.092;7.006;2022-11-15T05:49:15;9.20;;;6.55;;
14907;SDS011;7545;52.092;7.006;2022-11-15T05:51:44;11.15;;;6.38;;
14907;SDS011;7545;52.092;7.006;2022-11-15T05:54:12;10.77;;;6.93;;
14907;SDS011;7545;52.092;7.006;2022-11-15T05:56:38;12.45;;;5.93;;
14907;SDS011;7545;52.092;7.006;2022-11-15T05:59:03;7.28;;;6.25;;
14907;SDS011;7545;52.092;7.006;2022-11-15T06:01:30;7.90;;;6.30;;
14907;SDS011;7545;52.092;7.006;2022-11-15T06:03:56;9.40;;;6.15;;
14907;SDS011;7545;52.092;7.006;2022-11-15T06:06:21;9.82;;;7.07;;
14907;SDS011;7545;52.092;7.006;2022-11-15T06:08:47;9.50;;;7.22;;
14907;SDS011;7545;52.092;7.006;2022-11-15T06:11:13;10.82;;;7.07;;
14907;SDS011;7545;52.092;7.006;2022-11-15T06:13:38;8.85;;;6.47;;
14907;SDS011;7545;52.092;7.006;2022-11-15T06:16:04;9.27;;;6.78;;
14907;SDS011;7545;52.092;7.006;2022-11-15T06:18:33;10.10;;;7.28;;
14907;SDS011;7545;52.092;7.006;2022-11-15T06:21:00;10.95;;;7.55;;
14907;SDS011;7545;52.092;7.006;2022-11-15T06:23:26;8.93;;;7.50;;
14907;SDS011;7545;52.092;7.006;2022-11-15T06:25:53;10.30;;;6.50;;
14907;SDS011;7545;52.092;7.006;2022-11-15T06:28:18;8.63;;;7.15;;
14907;SDS011;7545;52.092;7.006;2022-11-15T06:30:44;9.80;;;6.90;;
14907;SDS011;7545;52.092;7.006;2022-11-15T06:33:10;10.52;;;6.95;;
14907;SDS011;7545;52.092;7.006;2022-11-15T06:35:35;12.80;;;8.00;;
14907;SDS011;7545;52.092;7.006;2022-11-15T06:38:05;12.73;;;7.93;;
14907;SDS011;7545;52.092;7.006;2022-11-15T06:40:36;9.07;;;7.35;;
14907;SDS011;7545;52.092;7.006;2022-11-15T06:43:03;10.95;;;7.60;;
14907;SDS011;7545;52.092;7.006;2022-11-15T06:45:30;8.85;;;7.30;;
14907;SDS011;7545;52.092;7.006;2022-11-15T06:47:56;10.52;;;6.90;;
14907;SDS011;7545;52.092;7.006;2022-11-15T06:50:22;11.63;;;7.22;;
14907;SDS011;7545;52.092;7.006;2022-11-15T06:52:47;11.38;;;7.70;;
14907;SDS011;7545;52.092;7.006;2022-11-15T06:55:13;12.00;;;8.25;;
14907;SDS011;7545;52.092;7.006;2022-11-15T06:57:46;10.00;;;7.40;;
14907;SDS011;7545;52.092;7.006;2022-11-15T07:00:16;11.50;;;8.70;;
14907;SDS011;7545;52.092;7.006;2022-11-15T07:02:43;10.02;;;6.75;;
14907;SDS011;7545;52.092;7.006;2022-11-15T07:05:09;8.60;;;7.07;;
14907;SDS011;7545;52.092;7.006;2022-11-15T07:07:35;10.40;;;7.85;;
14907;SDS011;7545;52.092;7.006;2022-11-15T07:10:00;9.82;;;7.88;;
14907;SDS011;7545;52.092;7.006;2022-11-15T07:12:26;12.27;;;8.23;;
14907;SDS011;7545;52.092;7.006;2022-11-15T07:14:51;12.40;;;8.27;;
14907;SDS011;7545;52.092;7.006;2022-11-15T07:17:17;10.32;;;7.45;;
14907;SDS011;7545;52.092;7.006;2022-11-15T07:19:42;11.00;;;7.40;;
14907;SDS011;7545;52.092;7.006;2022-11-15T07:22:08;8.85;;;7.40;;
14907;SDS011;7545;52.092;7.006;2022-11-15T07:24:34;9.90;;;7.45;;
14907;SDS011;7545;52.092;7.006;2022-11-15T07:26:59;10.20;;;7.50;;
14907;SDS011;7545;52.092;7.006;2022-11-15T07:29:25;9.45;;;7.00;;
14907;SDS011;7545;52.092;7.006;2022-11-15T07:31:50;10.88;;;7.80;;
14907;SDS011;7545;52.092;7.006;2022-11-15T07:34:16;9.90;;;8.07;;
14907;SDS011;7545;52.092;7.006;2022-11-15T07:36:41;11.07;;;6.80;;
14907;SDS011;7545;52.092;7.006;2022-11-15T07:39:07;10.25;;;7.57;;
14907;SDS011;7545;52.092;7.006;2022-11-15T07:41:33;10.13;;;6.75;;
14907;SDS011;7545;52.092;7.006;2022-11-15T07:43:58;12.35;;;6.47;;
14907;SDS011;7545;52.092;7.006;2022-11-15T07:46:24;8.52;;;6.97;;
14907;SDS011;7545;52.092;7.006;2022-11-15T07:48:49;10.75;;;7.68;;
14907;SDS011;7545;52.092;7.006;2022-11-15T07:51:15;10.95;;;7.88;;
14907;SDS011;7545;52.092;7.006;2022-11-15T07:53:42;8.00;;;5.95;;
14907;SDS011;7545;52.092;7.006;2022-11-15T07:56:08;9.45;;;6.47;;
14907;SDS011;7545;52.092;7.006;2022-11-15T07:58:34;7.88;;;6.65;;
14907;SDS011;7545;52.092;7.006;2022-11-15T08:01:04;11.63;;;7.72;;
14907;SDS011;7545;52.092;7.006;2022-11-15T08:03:34;9.48;;;6.80;;
14907;SDS011;7545;52.092;7.006;2022-11-15T08:06:00;8.57;;;6.60;;
14907;SDS011;7545;52.092;7.006;2022-11-15T08:08:26;9.95;;;7.05;;
14907;SDS011;7545;52.092;7.006;2022-11-15T08:10:52;7.47;;;6.10;;
14907;SDS011;7545;52.092;7.006;2022-11-15T08:13:17;11.40;;;6.30;;
14907;SDS011;7545;52.092;7.006;2022-11-15T08:15:43;9.73;;;6.50;;
14907;SDS011;7545;52.092;7.006;2022-11-15T08:18:10;7.18;;;5.75;;
14907;SDS011;7545;52.092;7.006;2022-11-15T08:20:40;7.05;;;5.38;;
14907;SDS011;7545;52.092;7.006;2022-11-15T08:23:07;7.18;;;5.90;;
14907;SDS011;7545;52.092;7.006;2022-11-15T08:25:35;13.27;;;6.10;;
14907;SDS011;7545;52.092;7.006;2022-11-15T08:28:02;9.48;;;5.75;;
14907;SDS011;7545;52.092;7.006;2022-11-15T08:30:30;11.05;;;6.20;;
14907;SDS011;7545;52.092;7.006;2022-11-15T08:32:59;7.47;;;5.90;;
14907;SDS011;7545;52.092;7.006;2022-11-15T08:35:25;7.70;;;5.50;;
14907;SDS011;7545;52.092;7.006;2022-11-15T08:37:52;7.75;;;5.55;;
14907;SDS011;7545;52.092;7.006;2022-11-15T08:40:18;6.80;;;5.03;;
14907;SDS011;7545;52.092;7.006;2022-11-15T08:42:45;6.22;;;4.88;;
14907;SDS011;7545;52.092;7.006;2022-11-15T08:45:11;6.47;;;4.97;;
14907;SDS011;7545;52.092;7.006;2022-11-15T08:47:37;5.78;;;4.50;;
14907;SDS011;7545;52.092;7.006;2022-11-15T08:50:03;6.45;;;4.70;;
14907;SDS011;7545;52.092;7.006;2022-11-15T08:52:28;6.40;;;4.72;;
14907;SDS011;7545;52.092;7.006;2022-11-15T08:54:54;5.95;;;5.30;;
14907;SDS011;7545;52.092;7.006;2022-11-15T08:57:19;8.07;;;4.88;;
14907;SDS011;7545;52.092;7.006;2022-11-15T08:59:45;6.28;;;4.03;;
14907;SDS011;7545;52.092;7.006;2022-11-15T09:02:14;6.63;;;4.43;;
14907;SDS011;7545;52.092;7.006;2022-11-15T09:04:43;6.70;;;4.00;;
14907;SDS011;7545;52.092;7.006;2022-11-15T09:07:10;4.25;;;3.60;;
14907;SDS011;7545;52.092;7.006;2022-11-15T09:09:36;6.10;;;3.97;;
14907;SDS011;7545;52.092;7.006;2022-11-15T09:12:02;5.72;;;3.90;;
14907;SDS011;7545;52.092;7.006;2022-11-15T09:14:28;5.32;;;4.13;;
14907;SDS011;7545;52.092;7.006;2022-11-15T09:16:54;5.70;;;3.45;;
14907;SDS011;7545;52.092;7.006;2022-11-15T09:19:20;5.30;;;4.35;;
14907;SDS011;7545;52.092;7.006;2022-11-15T09:21:46;5.95;;;3.90;;
14907;SDS011;7545;52.092;7.006;2022-11-15T09:24:11;5.80;;;4.00;;
14907;SDS011;7545;52.092;7.006;2022-11-15T09:26:37;4.85;;;3.33;;
14907;SDS011;7545;52.092;7.006;2022-11-15T09:29:02;5.05;;;3.97;;
14907;SDS011;7545;52.092;7.006;2022-11-15T09:31:28;3.90;;;3.08;;
14907;SDS011;7545;52.092;7.006;2022-11-15T09:33:54;4.22;;;3.08;;
14907;SDS011;7545;52.092;7.006;2022-11-15T09:36:20;4.05;;;3.08;;
14907;SDS011;7545;52.092;7.006;2022-11-15T09:38:45;3.00;;;2.67;;
14907;SDS011;7545;52.092;7.006;2022-11-15T09:49:08;2.55;;;1.90;;
14907;SDS011;7545;52.092;7.006;2022-11-15T09:51:38;2.83;;;1.63;;
14907;SDS011;7545;52.092;7.006;2022-11-15T09:57:02;2.75;;;1.77;;
14907;SDS011;7545;52.092;7.006;2022-11-15T10:05:26;2.20;;;1.20;;
14907;SDS011;7545;52.092;7.006;2022-11-15T10:10:41;2.25;;;1.40;;
14907;SDS011;7545;52.092;7.006;2022-11-15T10:13:22;2.03;;;1.60;;
14907;SDS011;7545;52.092;7.006;2022-11-15T10:15:50;1.67;;;1.10;;
14907;SDS011;7545;52.092;7.006;2022-11-15T10:18:29;2.40;;;1.50;;
14907;SDS011;7545;52.092;7.006;2022-11-15T10:21:15;1.40;;;1.30;;
14907;SDS011;7545;52.092;7.006;2022-11-15T10:23:44;1.98;;;1.85;;
14907;SDS011;7545;52.092;7.006;2022-11-15T10:26:11;4.07;;;1.23;;
14907;SDS011;7545;52.092;7.006;2022-11-15T10:28:40;2.30;;;1.20;;
14907;SDS011;7545;52.092;7.006;2022-11-15T10:31:21;1.20;;;1.10;;
14907;SDS011;7545;52.092;7.006;2022-11-15T10:33:58;1.98;;;1.40;;
14907;SDS011;7545;52.092;7.006;2022-11-15T10:36:36;1.40;;;1.23;;
14907;SDS011;7545;52.092;7.006;2022-11-15T10:39:02;1.63;;;1.00;;
14907;SDS011;7545;52.092;7.006;2022-11-15T10:44:07;2.22;;;0.80;;
14907;SDS011;7545;52.092;7.006;2022-11-15T10:46:46;2.72;;;0.60;;
14907;SDS011;7545;52.092;7.006;2022-11-15T10:51:46;3.25;;;1.10;;
14907;SDS011;7545;52.092;7.006;2022-11-15T10:54:34;1.13;;;0.80;;
14907;SDS011;7545;52.092;7.006;2022-11-15T10:57:06;1.45;;;0.77;;
14907;SDS011;7545;52.092;7.006;2022-11-15T10:59:36;3.58;;;1.08;;
14907;SDS011;7545;52.092;7.006;2022-11-15T11:02:20;2.17;;;1.13;;
14907;SDS011;7545;52.092;7.006;2022-11-15T11:04:59;0.82;;;0.70;;
14907;SDS011;7545;52.092;7.006;2022-11-15T11:07:27;2.20;;;0.80;;
14907;SDS011;7545;52.092;7.006;2022-11-15T11:09:59;1.67;;;0.70;;
14907;SDS011;7545;52.092;7.006;2022-11-15T11:12:31;2.25;;;0.98;;
14907;SDS011;7545;52.092;7.006;2022-11-15T11:14:58;2.15;;;1.13;;
14907;SDS011;7545;52.092;7.006;2022-11-15T11:20:10;2.63;;;1.77;;
14907;SDS011;7545;52.092;7.006;2022-11-15T11:25:35;1.15;;;1.05;;
14907;SDS011;7545;52.092;7.006;2022-11-15T11:36:39;3.10;;;1.50;;
14907;SDS011;7545;52.092;7.006;2022-11-15T11:41:56;3.33;;;1.95;;
14907;SDS011;7545;52.092;7.006;2022-11-15T11:44:41;1.80;;;1.60;;
14907;SDS011;7545;52.092;7.006;2022-11-15T11:47:21;2.65;;;1.77;;
14907;SDS011;7545;52.092;7.006;2022-11-15T11:49:51;3.53;;;1.75;;
14907;SDS011;7545;52.092;7.006;2022-11-15T11:52:26;2.70;;;1.83;;
14907;SDS011;7545;52.092;7.006;2022-11-15T11:57:41;2.22;;;1.83;;
14907;SDS011;7545;52.092;7.006;2022-11-15T12:00:21;1.63;;;1.48;;
14907;SDS011;7545;52.092;7.006;2022-11-15T12:05:53;3.30;;;1.83;;
14907;SDS011;7545;52.092;7.006;2022-11-15T12:08:30;2.50;;;1.95;;
14907;SDS011;7545;52.092;7.006;2022-11-15T12:11:14;3.03;;;1.73;;
14907;SDS011;7545;52.092;7.006;2022-11-15T12:13:42;3.25;;;1.63;;
14907;SDS011;7545;52.092;7.006;2022-11-15T12:16:13;2.03;;;1.67;;
14907;SDS011;7545;52.092;7.006;2022-11-15T12:18:49;2.40;;;1.67;;
14907;SDS011;7545;52.092;7.006;2022-11-15T12:24:06;4.40;;;1.30;;
14907;SDS011;7545;52.092;7.006;2022-11-15T12:26:52;2.80;;;1.55;;
14907;SDS011;7545;52.092;7.006;2022-11-15T12:32:02;1.95;;;1.20;;
14907;SDS011;7545;52.092;7.006;2022-11-15T12:34:34;2.45;;;1.33;;
14907;SDS011;7545;52.092;7.006;2022-11-15T12:42:58;1.95;;;1.10;;
14907;SDS011;7545;52.092;7.006;2022-11-15T12:45:45;2.25;;;1.50;;
14907;SDS011;7545;52.092;7.006;2022-11-15T13:06:45;2.60;;;0.98;;
14907;SDS011;7545;52.092;7.006;2022-11-15T13:20:00;0.73;;;0.47;;
14907;SDS011;7545;52.092;7.006;2022-11-15T13:22:27;1.77;;;0.75;;
14907;SDS011;7545;52.092;7.006;2022-11-15T13:33:32;2.78;;;0.90;;
14907;SDS011;7545;52.092;7.006;2022-11-15T13:36:00;0.88;;;0.65;;
14907;SDS011;7545;52.092;7.006;2022-11-15T13:39:48;1.58;;;0.90;;
14907;SDS011;7545;52.092;7.006;2022-11-15T13:41:52;2.90;;;1.40;;
14907;SDS011;7545;52.092;7.006;2022-11-15T13:44:38;2.75;;;1.58;;
14907;SDS011;7545;52.092;7.006;2022-11-15T13:47:09;2.75;;;1.60;;
14907;SDS011;7545;52.092;7.006;2022-11-15T13:49:38;4.85;;;1.73;;
14907;SDS011;7545;52.092;7.006;2022-11-15T13:52:06;4.40;;;1.10;;
14907;SDS011;7545;52.092;7.006;2022-11-15T13:57:05;4.82;;;1.10;;
14907;SDS011;7545;52.092;7.006;2022-11-15T13:59:52;9.10;;;1.77;;
14907;SDS011;7545;52.092;7.006;2022-11-15T14:02:25;2.75;;;1.25;;
14907;SDS011;7545;52.092;7.006;2022-11-15T14:05:04;2.00;;;1.00;;
14907;SDS011;7545;52.092;7.006;2022-11-15T14:07:52;4.75;;;0.90;;
14907;SDS011;7545;52.092;7.006;2022-11-15T14:12:57;1.77;;;1.05;;
14907;SDS011;7545;52.092;7.006;2022-11-15T14:15:26;2.25;;;1.10;;
14907;SDS011;7545;52.092;7.006;2022-11-15T14:17:52;2.38;;;1.17;;
14907;SDS011;7545;52.092;7.006;2022-11-15T14:20:31;2.33;;;1.17;;
14907;SDS011;7545;52.092;7.006;2022-11-15T14:23:02;2.08;;;0.88;;
14907;SDS011;7545;52.092;7.006;2022-11-15T14:25:33;2.60;;;0.80;;
14907;SDS011;7545;52.092;7.006;2022-11-15T14:30:35;3.28;;;1.10;;
14907;SDS011;7545;52.092;7.006;2022-11-15T14:33:01;4.15;;;2.03;;
14907;SDS011;7545;52.092;7.006;2022-11-15T14:35:27;3.33;;;2.25;;
14907;SDS011;7545;52.092;7.006;2022-11-15T14:37:53;2.97;;;2.10;;
14907;SDS011;7545;52.092;7.006;2022-11-15T14:40:19;8.50;;;3.85;;
14907;SDS011;7545;52.092;7.006;2022-11-15T14:42:46;3.78;;;1.50;;
14907;SDS011;7545;52.092;7.006;2022-11-15T14:45:15;2.92;;;1.58;;
14907;SDS011;7545;52.092;7.006;2022-11-15T14:47:43;2.67;;;1.50;;
14907;SDS011;7545;52.092;7.006;2022-11-15T14:50:12;3.08;;;1.70;;
14907;SDS011;7545;52.092;7.006;2022-11-15T14:52:39;4.65;;;1.60;;
14907;SDS011;7545;52.092;7.006;2022-11-15T14:55:16;3.20;;;1.45;;
14907;SDS011;7545;52.092;7.006;2022-11-15T14:57:45;2.75;;;1.02;;
14907;SDS011;7545;52.092;7.006;2022-11-15T15:00:11;2.22;;;1.10;;
14907;SDS011;7545;52.092;7.006;2022-11-15T15:02:37;2.67;;;1.10;;
14907;SDS011;7545;52.092;7.006;2022-11-15T15:05:13;4.05;;;1.10;;
14907;SDS011;7545;52.092;7.006;2022-11-15T15:07:39;1.23;;;0.85;;
14907;SDS011;7545;52.092;7.006;2022-11-15T15:10:05;4.63;;;1.13;;
14907;SDS011;7545;52.092;7.006;2022-11-15T15:12:30;2.63;;;1.42;;
14907;SDS011;7545;52.092;7.006;2022-11-15T15:14:56;2.95;;;1.67;;
14907;SDS011;7545;52.092;7.006;2022-11-15T15:17:21;5.53;;;2.50;;
14907;SDS011;7545;52.092;7.006;2022-11-15T15:19:47;4.85;;;3.03;;
14907;SDS011;7545;52.092;7.006;2022-11-15T15:22:14;8.18;;;4.50;;
14907;SDS011;7545;52.092;7.006;2022-11-15T15:24:41;6.75;;;3.92;;
14907;SDS011;7545;52.092;7.006;2022-11-15T15:27:10;5.38;;;3.60;;
14907;SDS011;7545;52.092;7.006;2022-11-15T15:29:36;5.75;;;3.17;;
14907;SDS011;7545;52.092;7.006;2022-11-15T15:32:02;6.57;;;3.60;;
14907;SDS011;7545;52.092;7.006;2022-11-15T15:34:28;4.65;;;3.05;;
14907;SDS011;7545;52.092;7.006;2022-11-15T15:39:52;5.13;;;2.70;;
14907;SDS011;7545;52.092;7.006;2022-11-15T15:42:19;4.25;;;2.30;;
14907;SDS011;7545;52.092;7.006;2022-11-15T15:44:46;4.55;;;2.33;;
14907;SDS011;7545;52.092;7.006;2022-11-15T15:47:22;3.35;;;2.05;;
14907;SDS011;7545;52.092;7.006;2022-11-15T15:49:50;2.85;;;2.33;;
14907;SDS011;7545;52.092;7.006;2022-11-15T15:52:16;3.35;;;1.60;;
14907;SDS011;7545;52.092;7.006;2022-11-15T15:54:42;2.85;;;2.00;;
14907;SDS011;7545;52.092;7.006;2022-11-15T15:57:08;1.98;;;1.77;;
14907;SDS011;7545;52.092;7.006;2022-11-15T15:59:37;1.85;;;1.50;;
14907;SDS011;7545;52.092;7.006;2022-11-15T16:02:03;4.65;;;1.50;;
14907;SDS011;7545;52.092;7.006;2022-11-15T16:04:28;3.00;;;1.63;;
14907;SDS011;7545;52.092;7.006;2022-11-15T16:06:58;5.53;;;2.28;;
14907;SDS011;7545;52.092;7.006;2022-11-15T16:09:24;2.92;;;1.50;;
14907;SDS011;7545;52.092;7.006;2022-11-15T16:12:18;3.15;;;1.77;;
14907;SDS011;7545;52.092;7.006;2022-11-15T16:14:44;2.28;;;1.00;;
14907;SDS011;7545;52.092;7.006;2022-11-15T16:17:20;3.67;;;1.52;;
14907;SDS011;7545;52.092;7.006;2022-11-15T16:19:48;5.25;;;1.45;;
14907;SDS011;7545;52.092;7.006;2022-11-15T16:22:14;3.95;;;1.52;;
14907;SDS011;7545;52.092;7.006;2022-11-15T16:24:39;2.53;;;1.48;;
14907;SDS011;7545;52.092;7.006;2022-11-15T16:27:05;3.90;;;2.08;;
14907;SDS011;7545;52.092;7.006;2022-11-15T16:29:35;2.67;;;1.40;;
14907;SDS011;7545;52.092;7.006;2022-11-15T16:32:01;5.70;;;1.77;;
14907;SDS011;7545;52.092;7.006;2022-11-15T16:34:26;3.50;;;1.63;;
14907;SDS011;7545;52.092;7.006;2022-11-15T16:36:52;5.30;;;2.22;;
14907;SDS011;7545;52.092;7.006;2022-11-15T16:39:22;4.15;;;2.42;;
14907;SDS011;7545;52.092;7.006;2022-11-15T16:41:50;4.72;;;3.20;;
14907;SDS011;7545;52.092;7.006;2022-11-15T16:44:15;4.15;;;2.90;;
14907;SDS011;7545;52.092;7.006;2022-11-15T16:46:41;3.85;;;3.17;;
14907;SDS011;7545;52.092;7.006;2022-11-15T16:49:13;3.92;;;2.50;;
14907;SDS011;7545;52.092;7.006;2022-11-15T16:51:40;6.00;;;3.20;;
14907;SDS011;7545;52.092;7.006;2022-11-15T16:54:06;3.60;;;3.05;;
14907;SDS011;7545;52.092;7.006;2022-11-15T16:56:32;2.70;;;1.90;;
14907;SDS011;7545;52.092;7.006;2022-11-15T16:58:58;3.58;;;2.00;;
14907;SDS011;7545;52.092;7.006;2022-11-15T17:01:25;3.97;;;2.05;;
14907;SDS011;7545;52.092;7.006;2022-11-15T17:03:52;2.72;;;1.98;;
14907;SDS011;7545;52.092;7.006;2022-11-15T17:06:18;3.58;;;2.13;;
14907;SDS011;7545;52.092;7.006;2022-11-15T17:08:45;5.95;;;2.45;;
14907;SDS011;7545;52.092;7.006;2022-11-15T17:11:15;3.80;;;2.15;;
14907;SDS011;7545;52.092;7.006;2022-11-15T17:13:45;2.80;;;1.98;;
14907;SDS011;7545;52.092;7.006;2022-11-15T17:16:13;2.60;;;2.10;;
14907;SDS011;7545;52.092;7.006;2022-11-15T17:18:40;2.80;;;1.95;;
14907;SDS011;7545;52.092;7.006;2022-11-15T17:21:07;3.90;;;1.65;;
14907;SDS011;7545;52.092;7.006;2022-11-15T17:23:37;4.97;;;1.58;;